createdAt,value
2019-03-17T00:01:57.685Z,26.40
2019-03-17T00:04:31.270Z,26.40
2019-03-17T00:06:57.225Z,26.40
2019-03-17T00:09:27.252Z,26.40
2019-03-17T00:11:57.381Z,26.50
2019-03-17T00:14:27.379Z,26.50
2019-03-17T00:16:57.576Z,26.50
2019-03-17T00:19:27.790Z,26.50
2019-03-17T00:21:57.974Z,26.60
2019-03-17T00:24:28.348Z,26.60
2019-03-17T00:26:58.589Z,26.70
2019-03-17T00:29:28.672Z,26.70
2019-03-17T00:31:59.687Z,26.70
2019-03-17T00:34:29.920Z,26.70
2019-03-17T00:37:00.116Z,26.80
2019-03-17T00:39:30.138Z,26.80
2019-03-17T00:42:00.244Z,26.80
2019-03-17T00:44:30.956Z,26.90
2019-03-17T00:47:00.837Z,26.90
2019-03-17T00:49:31.052Z,27.00
2019-03-17T00:52:01.189Z,27.00
2019-03-17T00:54:31.311Z,27.10
2019-03-17T00:57:01.339Z,27.10
2019-03-17T00:59:31.358Z,27.10
2019-03-17T01:02:01.453Z,27.20
2019-03-17T01:04:31.499Z,27.20
2019-03-17T01:07:02.381Z,27.20
2019-03-17T01:09:32.723Z,27.30
2019-03-17T01:12:02.915Z,27.40
2019-03-17T01:14:33.082Z,27.50
2019-03-17T01:17:03.246Z,27.50
2019-03-17T01:19:33.422Z,27.60
2019-03-17T01:22:03.440Z,27.70
2019-03-17T01:24:33.529Z,27.70
2019-03-17T01:27:03.578Z,27.70
2019-03-17T01:29:33.890Z,27.80
2019-03-17T01:32:04.193Z,27.80
2019-03-17T01:34:34.206Z,27.90
2019-03-17T01:37:04.369Z,28.00
2019-03-17T01:39:34.463Z,28.10
2019-03-17T01:42:04.659Z,28.10
2019-03-17T01:44:34.687Z,28.20
2019-03-17T01:47:04.949Z,28.30
2019-03-17T01:49:34.862Z,28.30
2019-03-17T01:52:05.157Z,28.30
2019-03-17T01:54:35.308Z,28.40
2019-03-17T01:57:05.355Z,28.50
2019-03-17T01:59:35.381Z,28.60
2019-03-17T02:02:05.538Z,28.60
2019-03-17T02:04:35.488Z,28.70
2019-03-17T02:07:05.856Z,28.80
2019-03-17T02:09:35.754Z,28.90
2019-03-17T02:12:05.910Z,28.90
2019-03-17T02:14:36.013Z,29.00
2019-03-17T02:17:06.094Z,29.00
2019-03-17T02:19:36.009Z,29.10
2019-03-17T02:22:06.119Z,29.20
2019-03-17T02:24:36.127Z,29.30
2019-03-17T02:27:06.434Z,29.30
2019-03-17T02:29:36.693Z,29.40
2019-03-17T02:32:06.742Z,29.40
2019-03-17T02:34:37.012Z,29.50
2019-03-17T02:37:07.165Z,29.60
2019-03-17T02:39:37.290Z,29.70
2019-03-17T02:42:07.397Z,29.80
2019-03-17T02:44:37.595Z,29.80
2019-03-17T02:47:07.779Z,29.90
2019-03-17T02:49:37.688Z,29.90
2019-03-17T02:52:07.762Z,30.00
2019-03-17T02:54:38.003Z,30.10
2019-03-17T02:57:08.186Z,30.20
2019-03-17T02:59:38.362Z,30.20
2019-03-17T03:02:08.619Z,30.30
2019-03-17T03:04:38.747Z,30.40
2019-03-17T03:07:08.755Z,30.50
2019-03-17T03:09:38.783Z,30.60
2019-03-17T03:12:10.743Z,30.60
2019-03-17T03:14:40.674Z,30.70
2019-03-17T03:17:10.742Z,30.70
2019-03-17T03:19:40.853Z,30.80
2019-03-17T03:22:10.892Z,30.80
2019-03-17T03:24:40.910Z,30.90
2019-03-17T03:27:11.052Z,31.00
2019-03-17T03:29:41.105Z,31.00
2019-03-17T03:32:11.221Z,31.10
2019-03-17T03:34:41.476Z,31.10
2019-03-17T03:37:11.463Z,31.20
2019-03-17T03:39:41.516Z,31.30
2019-03-17T03:42:11.640Z,31.40
2019-03-17T03:44:41.629Z,31.60
2019-03-17T03:47:11.811Z,31.70
2019-03-17T03:49:42.451Z,31.70
2019-03-17T03:52:12.569Z,31.80
2019-03-17T03:57:12.190Z,32.00
2019-03-17T03:59:42.117Z,32.00
2019-03-17T04:02:12.360Z,32.00
2019-03-17T04:04:42.279Z,32.00
2019-03-17T04:07:12.449Z,32.00
2019-03-17T04:09:42.552Z,32.10
2019-03-17T04:12:12.996Z,32.20
2019-03-17T04:14:43.170Z,32.20
2019-03-17T04:17:13.314Z,32.20
2019-03-17T04:19:43.429Z,32.30
2019-03-17T04:22:13.338Z,32.40
2019-03-17T04:24:43.523Z,32.50
2019-03-17T04:27:13.597Z,32.60
2019-03-17T04:29:43.709Z,32.60
2019-03-17T04:32:13.845Z,32.60
2019-03-17T04:34:43.794Z,32.70
2019-03-17T04:37:13.898Z,32.80
2019-03-17T04:39:43.855Z,32.80
2019-03-17T04:42:13.881Z,32.90
2019-03-17T04:44:44.036Z,32.90
2019-03-17T04:47:14.037Z,32.90
2019-03-17T04:49:44.317Z,33.00
2019-03-17T04:52:14.541Z,33.00
2019-03-17T04:54:44.650Z,33.00
2019-03-17T04:57:15.776Z,33.00
2019-03-17T04:59:45.805Z,33.00
2019-03-17T05:02:16.031Z,33.10
2019-03-17T05:04:46.147Z,33.20
2019-03-17T05:07:16.111Z,33.20
2019-03-17T05:09:46.310Z,33.20
2019-03-17T05:12:16.433Z,33.30
2019-03-17T05:14:46.422Z,33.20
2019-03-17T05:17:16.682Z,33.30
2019-03-17T05:19:46.667Z,33.40
2019-03-17T05:22:16.657Z,33.40
2019-03-17T05:24:46.751Z,33.50
2019-03-17T05:27:16.849Z,33.60
2019-03-17T05:29:46.965Z,33.60
2019-03-17T05:32:17.067Z,33.70
2019-03-17T05:34:47.151Z,33.70
2019-03-17T05:37:17.840Z,33.70
2019-03-17T05:39:48.096Z,33.70
2019-03-17T05:42:18.086Z,33.70
2019-03-17T05:44:48.122Z,33.70
2019-03-17T05:47:18.327Z,33.70
2019-03-17T05:49:48.561Z,33.90
2019-03-17T05:52:18.529Z,34.00
2019-03-17T05:54:48.571Z,34.10
2019-03-17T05:57:18.596Z,34.20
2019-03-17T05:59:48.631Z,34.20
2019-03-17T06:02:18.729Z,34.20
2019-03-17T06:04:48.769Z,34.20
2019-03-17T06:07:19.247Z,34.20
2019-03-17T06:09:49.586Z,34.20
2019-03-17T06:12:19.770Z,34.20
2019-03-17T06:14:49.956Z,34.20
2019-03-17T06:17:20.072Z,34.20
2019-03-17T06:22:19.757Z,34.50
2019-03-17T06:24:50.024Z,34.60
2019-03-17T06:27:20.176Z,34.60
2019-03-17T06:32:19.944Z,34.70
2019-03-17T06:34:50.021Z,34.70
2019-03-17T06:37:30.493Z,34.80
2019-03-17T06:39:51.788Z,34.80
2019-03-17T06:42:21.791Z,34.90
2019-03-17T06:44:51.954Z,35.00
2019-03-17T06:47:22.119Z,35.10
2019-03-17T06:49:52.273Z,35.10
2019-03-17T06:52:22.580Z,35.10
2019-03-17T06:54:52.493Z,35.00
2019-03-17T06:57:22.601Z,35.00
2019-03-17T06:59:52.674Z,34.90
2019-03-17T07:02:22.951Z,34.80
2019-03-17T07:04:54.009Z,34.80
2019-03-17T07:07:24.319Z,34.80
2019-03-17T07:09:54.496Z,34.80
2019-03-17T07:12:24.528Z,34.80
2019-03-17T07:14:54.672Z,34.90
2019-03-17T07:17:25.003Z,34.90
2019-03-17T07:19:55.198Z,34.90
2019-03-17T07:22:25.489Z,35.00
2019-03-17T07:24:55.766Z,35.10
2019-03-17T07:27:25.677Z,35.10
2019-03-17T07:29:55.840Z,35.10
2019-03-17T07:32:26.026Z,35.00
2019-03-17T07:34:56.055Z,35.10
2019-03-17T07:37:26.328Z,35.00
2019-03-17T07:39:56.271Z,35.00
2019-03-17T07:42:26.203Z,34.90
2019-03-17T07:44:56.545Z,35.00
2019-03-17T07:47:26.644Z,35.10
2019-03-17T07:49:56.766Z,35.10
2019-03-17T07:52:26.901Z,35.20
2019-03-17T07:54:59.441Z,35.20
2019-03-17T07:57:29.509Z,35.20
2019-03-17T07:59:59.635Z,35.20
2019-03-17T08:02:29.731Z,35.20
2019-03-17T08:04:59.790Z,35.20
2019-03-17T08:07:30.399Z,35.30
2019-03-17T08:10:00.840Z,35.20
2019-03-17T08:12:31.076Z,35.30
2019-03-17T08:15:01.205Z,35.30
2019-03-17T08:17:31.121Z,35.30
2019-03-17T08:20:01.328Z,35.40
2019-03-17T08:22:31.455Z,35.30
2019-03-17T08:25:01.633Z,35.30
2019-03-17T08:27:32.942Z,35.30
2019-03-17T08:30:02.966Z,35.40
2019-03-17T08:32:33.007Z,35.40
2019-03-17T08:35:03.070Z,35.30
2019-03-17T08:37:33.145Z,35.30
2019-03-17T08:40:03.166Z,35.30
2019-03-17T08:42:33.256Z,35.30
2019-03-17T08:45:03.497Z,35.30
2019-03-17T08:47:33.548Z,35.30
2019-03-17T08:50:03.529Z,35.40
2019-03-17T08:52:34.465Z,35.40
2019-03-17T08:55:05.404Z,35.40
2019-03-17T08:57:35.686Z,35.30
2019-03-17T09:00:09.372Z,35.30
2019-03-17T09:02:39.434Z,35.30
2019-03-17T09:05:09.360Z,35.30
2019-03-17T09:07:39.595Z,35.30
2019-03-17T09:10:12.881Z,35.30
2019-03-17T09:12:42.806Z,35.40
2019-03-17T09:15:12.916Z,35.40
2019-03-17T09:17:43.009Z,35.40
2019-03-17T09:20:15.016Z,35.40
2019-03-17T09:22:45.617Z,35.40
2019-03-17T09:25:15.844Z,35.40
2019-03-17T09:27:45.795Z,35.30
2019-03-17T09:30:17.708Z,35.30
2019-03-17T09:32:47.783Z,35.30
2019-03-17T09:35:17.941Z,35.30
2019-03-17T09:37:48.079Z,35.30
2019-03-17T09:40:19.030Z,35.30
2019-03-17T09:42:49.145Z,35.30
2019-03-17T09:45:19.151Z,35.30
2019-03-17T09:47:49.199Z,35.30
2019-03-17T09:50:20.389Z,35.30
2019-03-17T09:52:50.574Z,35.30
2019-03-17T09:55:20.676Z,35.20
2019-03-17T09:57:50.771Z,35.20
2019-03-17T10:00:22.842Z,35.10
2019-03-17T10:02:53.010Z,35.10
2019-03-17T10:05:23.246Z,35.10
2019-03-17T10:07:53.417Z,35.00
2019-03-17T10:10:25.065Z,35.00
2019-03-17T10:12:55.141Z,35.00
2019-03-17T10:15:25.375Z,34.90
2019-03-17T10:17:55.585Z,34.90
2019-03-17T10:20:25.674Z,34.80
2019-03-17T10:22:55.658Z,34.80
2019-03-17T10:25:26.108Z,34.80
2019-03-17T10:27:56.407Z,34.70
2019-03-17T10:30:26.439Z,34.70
2019-03-17T10:32:56.658Z,34.60
2019-03-17T10:35:26.740Z,34.60
2019-03-17T10:37:56.816Z,34.50
2019-03-17T10:40:27.077Z,34.50
2019-03-17T10:42:57.300Z,34.50
2019-03-17T10:45:27.365Z,34.40
2019-03-17T10:47:57.513Z,34.30
2019-03-17T10:50:27.472Z,34.20
2019-03-17T10:52:57.524Z,34.20
2019-03-17T10:55:27.651Z,34.10
2019-03-17T10:57:57.817Z,34.00
2019-03-17T11:00:28.139Z,34.00
2019-03-17T11:02:58.401Z,33.90
2019-03-17T11:05:28.624Z,33.90
2019-03-17T11:07:58.779Z,33.80
2019-03-17T11:10:28.878Z,33.70
2019-03-17T11:12:58.781Z,33.60
2019-03-17T11:15:29.303Z,33.50
2019-03-17T11:17:59.154Z,33.50
2019-03-17T11:20:29.315Z,33.40
2019-03-17T11:22:59.540Z,33.30
2019-03-17T11:25:29.544Z,33.20
2019-03-17T11:27:59.741Z,33.20
2019-03-17T11:30:30.041Z,33.10
2019-03-17T11:33:00.173Z,33.10
2019-03-17T11:35:30.448Z,33.00
2019-03-17T11:38:00.473Z,32.90
2019-03-17T11:40:31.226Z,32.90
2019-03-17T11:43:01.351Z,32.80
2019-03-17T11:45:31.481Z,32.70
2019-03-17T11:48:01.329Z,32.70
2019-03-17T11:50:31.703Z,32.60
2019-03-17T11:53:01.643Z,32.50
2019-03-17T11:55:32.063Z,32.50
2019-03-17T11:58:02.086Z,32.40
2019-03-17T12:00:32.431Z,32.30
2019-03-17T12:03:02.747Z,32.30
2019-03-17T12:05:33.021Z,32.20
2019-03-17T12:08:03.108Z,32.20
2019-03-17T12:10:33.258Z,32.20
2019-03-17T12:13:03.974Z,32.10
2019-03-17T12:15:36.457Z,32.10
2019-03-17T12:18:06.469Z,32.00
2019-03-17T12:20:36.604Z,32.00
2019-03-17T12:23:06.761Z,32.00
2019-03-17T12:25:36.998Z,31.90
2019-03-17T12:28:06.984Z,31.90
2019-03-17T12:30:36.974Z,31.80
2019-03-17T12:33:07.209Z,31.80
2019-03-17T12:35:37.359Z,31.80
2019-03-17T12:38:07.511Z,31.80
2019-03-17T12:40:37.748Z,31.70
2019-03-17T12:43:07.738Z,31.60
2019-03-17T12:45:37.713Z,31.60
2019-03-17T12:48:07.843Z,31.50
2019-03-17T12:50:38.091Z,31.50
2019-03-17T12:53:08.585Z,31.40
2019-03-17T12:55:38.632Z,31.40
2019-03-17T12:58:08.759Z,31.30
2019-03-17T13:00:38.856Z,31.20
2019-03-17T13:03:08.987Z,31.10
2019-03-17T13:05:39.092Z,31.00
2019-03-17T13:08:09.167Z,31.00
2019-03-17T13:10:39.315Z,31.00
2019-03-17T13:13:09.387Z,31.00
2019-03-17T13:15:39.610Z,30.90
2019-03-17T13:18:09.898Z,30.90
2019-03-17T13:20:40.077Z,30.90
2019-03-17T13:23:10.107Z,30.90
2019-03-17T13:25:40.278Z,30.90
2019-03-17T13:28:10.315Z,30.90
2019-03-17T13:30:40.426Z,30.90
2019-03-17T13:33:10.595Z,30.80
2019-03-17T13:35:40.652Z,30.80
2019-03-17T13:38:11.167Z,30.70
2019-03-17T13:40:41.271Z,30.70
2019-03-17T13:43:11.296Z,30.70
2019-03-17T13:45:41.593Z,30.60
2019-03-17T13:48:11.623Z,30.60
2019-03-17T13:50:41.717Z,30.50
2019-03-17T13:53:11.958Z,30.50
2019-03-17T13:55:42.110Z,30.40
2019-03-17T13:58:13.270Z,30.40
2019-03-17T14:00:43.346Z,30.40
2019-03-17T14:03:13.420Z,30.30
2019-03-17T14:05:43.571Z,30.40
2019-03-17T14:08:13.768Z,30.30
2019-03-17T14:10:44.039Z,30.30
2019-03-17T14:13:14.123Z,30.30
2019-03-17T14:15:44.162Z,30.20
2019-03-17T14:18:14.316Z,30.20
2019-03-17T14:20:44.256Z,30.20
2019-03-17T14:23:14.388Z,30.10
2019-03-17T14:25:44.406Z,30.10
2019-03-17T14:28:14.654Z,30.00
2019-03-17T14:30:45.095Z,30.00
2019-03-17T14:33:15.217Z,30.00
2019-03-17T14:35:45.296Z,30.00
2019-03-17T14:38:15.346Z,30.00
2019-03-17T14:40:53.327Z,30.00
2019-03-17T14:43:17.022Z,29.90
2019-03-17T14:45:47.066Z,29.80
2019-03-17T14:48:17.179Z,29.90
2019-03-17T14:50:47.238Z,29.80
2019-03-17T14:53:17.670Z,29.80
2019-03-17T14:55:47.982Z,29.80
2019-03-17T14:58:18.127Z,29.70
2019-03-17T15:00:48.256Z,29.80
2019-03-17T15:03:18.407Z,29.70
2019-03-17T15:05:49.089Z,29.70
2019-03-17T15:08:19.348Z,29.70
2019-03-17T15:10:49.231Z,29.60
2019-03-17T15:13:19.480Z,29.50
2019-03-17T15:16:01.978Z,29.50
2019-03-17T15:18:21.097Z,29.50
2019-03-17T15:20:51.244Z,29.40
2019-03-17T15:23:21.418Z,29.40
2019-03-17T15:25:51.349Z,29.40
2019-03-17T15:28:21.732Z,29.30
2019-03-17T15:31:05.493Z,29.30
2019-03-17T15:33:23.504Z,29.20
2019-03-17T15:35:53.463Z,29.20
2019-03-17T15:38:23.546Z,29.20
2019-03-17T15:40:53.706Z,29.20
2019-03-17T15:43:23.956Z,29.20
2019-03-17T15:45:54.053Z,29.10
2019-03-17T15:48:24.045Z,29.20
2019-03-17T15:50:54.176Z,29.10
2019-03-17T15:53:24.245Z,29.10
2019-03-17T15:55:54.163Z,29.00
2019-03-17T15:58:24.217Z,29.10
2019-03-17T16:00:54.383Z,29.00
2019-03-17T16:03:24.413Z,28.90
2019-03-17T16:05:54.498Z,28.90
2019-03-17T16:08:24.938Z,28.90
2019-03-17T16:10:55.160Z,28.90
2019-03-17T16:13:25.315Z,28.80
2019-03-17T16:15:55.358Z,28.70
2019-03-17T16:18:25.738Z,28.70
2019-03-17T16:20:55.749Z,28.60
2019-03-17T16:23:25.815Z,28.50
2019-03-17T16:25:55.837Z,28.50
2019-03-17T16:28:26.011Z,28.40
2019-03-17T16:31:06.404Z,28.30
2019-03-17T16:33:36.571Z,28.30
2019-03-17T16:36:06.741Z,28.30
2019-03-17T16:38:36.705Z,28.30
2019-03-17T16:41:07.051Z,28.30
2019-03-17T16:43:37.303Z,28.30
2019-03-17T16:46:07.551Z,28.20
2019-03-17T16:48:37.603Z,28.30
2019-03-17T16:51:07.938Z,28.30
2019-03-17T16:53:38.029Z,28.30
2019-03-17T16:56:08.240Z,28.30
2019-03-17T16:58:38.781Z,28.20
2019-03-17T17:01:08.990Z,28.30
2019-03-17T17:03:38.993Z,28.20
2019-03-17T17:06:09.200Z,28.20
2019-03-17T17:08:39.364Z,28.20
2019-03-17T17:11:09.582Z,28.10
2019-03-17T17:13:39.503Z,28.10
2019-03-17T17:16:09.549Z,28.10
2019-03-17T17:18:39.695Z,28.00
2019-03-17T17:21:09.735Z,28.00
2019-03-17T17:23:39.827Z,28.00
2019-03-17T17:26:10.252Z,28.00
2019-03-17T17:28:40.392Z,28.00
2019-03-17T17:31:10.476Z,28.00
2019-03-17T17:33:40.508Z,27.90
2019-03-17T17:36:11.139Z,27.90
2019-03-17T17:38:41.118Z,27.80
2019-03-17T17:41:11.530Z,27.70
2019-03-17T17:43:41.786Z,27.70
2019-03-17T17:46:11.739Z,27.70
2019-03-17T17:48:41.754Z,27.60
2019-03-17T17:51:11.824Z,27.60
2019-03-17T17:56:11.567Z,27.50
2019-03-17T17:58:41.548Z,27.40
2019-03-17T18:01:11.785Z,27.40
2019-03-17T18:03:51.225Z,27.40
2019-03-17T18:06:13.295Z,27.50
2019-03-17T18:08:43.567Z,27.50
2019-03-17T18:11:13.582Z,27.50
2019-03-17T18:13:43.641Z,27.60
2019-03-17T18:16:13.716Z,27.50
2019-03-17T18:18:43.803Z,27.60
2019-03-17T18:21:13.945Z,27.60
2019-03-17T18:23:44.089Z,27.60
2019-03-17T18:26:14.100Z,27.60
2019-03-17T18:28:44.167Z,27.60
2019-03-17T18:31:14.434Z,27.60
2019-03-17T18:33:45.442Z,27.60
2019-03-17T18:36:15.842Z,27.60
2019-03-17T18:38:46.173Z,27.60
2019-03-17T18:41:16.435Z,27.60
2019-03-17T18:43:46.403Z,27.60
2019-03-17T18:46:16.824Z,27.50
2019-03-17T18:48:47.174Z,27.50
2019-03-17T18:51:17.257Z,27.50
2019-03-17T18:53:47.288Z,27.50
2019-03-17T18:56:17.256Z,27.50
2019-03-17T18:58:47.385Z,27.50
2019-03-17T19:01:17.496Z,27.40
2019-03-17T19:03:47.485Z,27.40
2019-03-17T19:06:18.548Z,27.40
2019-03-17T19:08:48.732Z,27.40
2019-03-17T19:11:18.794Z,27.40
2019-03-17T19:13:48.948Z,27.30
2019-03-17T19:16:19.064Z,27.30
2019-03-17T19:18:49.147Z,27.30
2019-03-17T19:21:19.127Z,27.30
2019-03-17T19:23:49.418Z,27.30
2019-03-17T19:26:19.932Z,27.30
2019-03-17T19:28:49.974Z,27.30
2019-03-17T19:31:20.024Z,27.30
2019-03-17T19:33:50.019Z,27.30
2019-03-17T19:36:20.206Z,27.20
2019-03-17T19:38:50.349Z,27.30
2019-03-17T19:41:20.457Z,27.30
2019-03-17T19:43:50.593Z,27.30
2019-03-17T19:46:20.737Z,27.20
2019-03-17T19:48:50.872Z,27.10
2019-03-17T19:51:20.970Z,27.00
2019-03-17T19:53:51.089Z,27.00
2019-03-17T19:56:21.185Z,27.00
2019-03-17T19:58:51.322Z,27.00
2019-03-17T20:01:21.239Z,27.10
2019-03-17T20:03:51.527Z,27.10
2019-03-17T20:06:21.519Z,27.10
2019-03-17T20:08:51.604Z,27.10
2019-03-17T20:11:21.643Z,27.10
2019-03-17T20:13:51.659Z,27.10
2019-03-17T20:16:21.647Z,27.10
2019-03-17T20:18:51.725Z,27.00
2019-03-17T20:21:21.793Z,27.00
2019-03-17T20:23:51.830Z,27.00
2019-03-17T20:26:22.672Z,27.00
2019-03-17T20:28:52.792Z,27.00
2019-03-17T20:31:23.074Z,27.00
2019-03-17T20:33:53.206Z,27.00
2019-03-17T20:36:23.376Z,27.00
2019-03-17T20:38:53.489Z,27.00
2019-03-17T20:41:23.532Z,27.10
2019-03-17T20:43:53.692Z,27.10
2019-03-17T20:46:23.942Z,27.00
2019-03-17T20:48:54.049Z,27.10
2019-03-17T20:51:24.002Z,27.10
2019-03-17T20:53:54.059Z,27.10
2019-03-17T20:56:24.229Z,27.00
2019-03-17T20:58:54.717Z,27.10
2019-03-17T21:01:24.936Z,27.00
2019-03-17T21:03:55.273Z,27.00
2019-03-17T21:06:25.326Z,27.00
2019-03-17T21:08:55.701Z,27.00
2019-03-17T21:11:25.707Z,27.00
2019-03-17T21:13:55.839Z,27.00
2019-03-17T21:16:25.871Z,26.90
2019-03-17T21:18:55.929Z,26.90
2019-03-17T21:21:25.838Z,26.80
2019-03-17T21:23:56.026Z,26.80
2019-03-17T21:26:26.070Z,26.80
2019-03-17T21:28:56.301Z,26.70
2019-03-17T21:31:26.499Z,26.70
2019-03-17T21:33:56.633Z,26.70
2019-03-17T21:36:26.638Z,26.70
2019-03-17T21:38:56.842Z,26.60
2019-03-17T21:41:27.294Z,26.70
2019-03-17T21:43:59.617Z,26.70
2019-03-17T21:46:28.987Z,26.70
2019-03-17T21:48:58.909Z,26.70
2019-03-17T21:51:29.138Z,26.70
2019-03-17T21:53:59.165Z,26.70
2019-03-17T21:56:29.087Z,26.70
2019-03-17T21:58:59.537Z,26.70
2019-03-17T22:01:29.442Z,26.70
2019-03-17T22:03:59.507Z,26.70
2019-03-17T22:06:29.751Z,26.70
2019-03-17T22:09:00.385Z,26.70
2019-03-17T22:11:30.508Z,26.70
2019-03-17T22:14:11.583Z,26.70
2019-03-17T22:16:31.926Z,26.70
2019-03-17T22:19:02.098Z,26.70
2019-03-17T22:21:33.130Z,26.70
2019-03-17T22:24:03.264Z,26.70
2019-03-17T22:26:33.373Z,26.70
2019-03-17T22:29:03.666Z,26.60
2019-03-17T22:31:33.835Z,26.60
2019-03-17T22:34:04.008Z,26.50
2019-03-17T22:36:34.151Z,26.60
2019-03-17T22:39:04.502Z,26.60
2019-03-17T22:41:34.619Z,26.50
2019-03-17T22:44:04.694Z,26.50
2019-03-17T22:46:34.762Z,26.50
2019-03-17T22:49:04.855Z,26.50
2019-03-17T22:51:34.978Z,26.50
2019-03-17T22:54:05.251Z,26.40
2019-03-17T22:56:35.335Z,26.40
2019-03-17T22:59:05.513Z,26.40
2019-03-17T23:01:35.650Z,26.40
2019-03-17T23:04:05.773Z,26.40
2019-03-17T23:06:35.638Z,26.30
2019-03-17T23:09:07.669Z,26.30
2019-03-17T23:11:37.878Z,26.20
2019-03-17T23:14:08.051Z,26.30
2019-03-17T23:16:38.388Z,26.30
2019-03-17T23:19:08.446Z,26.30
2019-03-17T23:21:38.566Z,26.30
2019-03-17T23:24:08.703Z,26.30
2019-03-17T23:26:38.762Z,26.30
2019-03-17T23:29:08.786Z,26.30
2019-03-17T23:31:38.769Z,26.30
2019-03-17T23:34:08.774Z,26.30
2019-03-17T23:36:39.013Z,26.30
2019-03-17T23:39:09.198Z,26.40
2019-03-17T23:41:39.307Z,26.40
2019-03-17T23:44:09.551Z,26.40
2019-03-17T23:46:39.593Z,26.50
2019-03-17T23:49:09.725Z,26.60
2019-03-17T23:51:39.818Z,26.60
2019-03-17T23:54:09.712Z,26.70
2019-03-17T23:56:39.810Z,26.70
2019-03-17T23:59:09.785Z,26.80
